sensor_id;sensor_type;location;lat;lon;timestamp;pressure;altitude;pressure_sealevel;temperature;humidity
71974;BME280;59840;52.122;5.404;2022-10-31T00:01:15;102207.97;;;10.41;99.48
71974;BME280;59840;52.122;5.404;2022-10-31T00:03:41;102208.22;;;10.39;99.42
71974;BME280;59840;52.122;5.404;2022-10-31T00:06:08;102206.38;;;10.40;99.75
71974;BME280;59840;52.122;5.404;2022-10-31T00:08:35;102201.09;;;10.40;99.59
71974;BME280;59840;52.122;5.404;2022-10-31T00:11:01;102198.44;;;10.40;99.73
71974;BME280;59840;52.122;5.404;2022-10-31T00:13:28;102207.63;;;10.37;99.31
71974;BME280;59840;52.122;5.404;2022-10-31T00:15:54;102209.25;;;10.38;99.29
71974;BME280;59840;52.122;5.404;2022-10-31T00:18:21;102204.38;;;10.35;99.60
71974;BME280;59840;52.122;5.404;2022-10-31T00:20:47;102216.75;;;10.35;99.53
71974;BME280;59840;52.122;5.404;2022-10-31T00:23:13;102213.09;;;10.36;99.31
71974;BME280;59840;52.122;5.404;2022-10-31T00:25:40;102205.81;;;10.31;99.40
71974;BME280;59840;52.122;5.404;2022-10-31T00:28:07;102212.72;;;10.26;99.29
71974;BME280;59840;52.122;5.404;2022-10-31T00:30:36;102215.97;;;10.28;99.32
71974;BME280;59840;52.122;5.404;2022-10-31T00:33:03;102220.84;;;10.31;99.42
71974;BME280;59840;52.122;5.404;2022-10-31T00:35:31;102226.72;;;10.33;99.32
71974;BME280;59840;52.122;5.404;2022-10-31T00:37:58;102226.28;;;10.36;99.54
71974;BME280;59840;52.122;5.404;2022-10-31T00:40:25;102220.41;;;10.34;99.14
71974;BME280;59840;52.122;5.404;2022-10-31T00:42:51;102224.06;;;10.33;99.73
71974;BME280;59840;52.122;5.404;2022-10-31T00:45:18;102218.78;;;10.33;99.50
71974;BME280;59840;52.122;5.404;2022-10-31T00:47:45;102219.00;;;10.31;99.04
71974;BME280;59840;52.122;5.404;2022-10-31T00:50:11;102218.19;;;10.31;99.17
71974;BME280;59840;52.122;5.404;2022-10-31T00:52:37;102217.00;;;10.27;98.88
71974;BME280;59840;52.122;5.404;2022-10-31T00:55:04;102223.69;;;10.29;98.96
71974;BME280;59840;52.122;5.404;2022-10-31T00:57:31;102231.38;;;10.31;99.27
71974;BME280;59840;52.122;5.404;2022-10-31T00:59:57;102227.72;;;10.32;99.43
71974;BME280;59840;52.122;5.404;2022-10-31T01:02:23;102223.69;;;10.29;98.98
71974;BME280;59840;52.122;5.404;2022-10-31T01:04:50;102222.06;;;10.28;99.40
71974;BME280;59840;52.122;5.404;2022-10-31T01:07:17;102217.41;;;10.24;99.50
71974;BME280;59840;52.122;5.404;2022-10-31T01:09:43;102210.09;;;10.19;98.96
71974;BME280;59840;52.122;5.404;2022-10-31T01:12:10;102216.38;;;10.12;98.79
71974;BME280;59840;52.122;5.404;2022-10-31T01:14:36;102213.94;;;10.10;99.03
71974;BME280;59840;52.122;5.404;2022-10-31T01:17:03;102220.44;;;10.07;99.03
71974;BME280;59840;52.122;5.404;2022-10-31T01:19:29;102212.97;;;10.04;98.82
71974;BME280;59840;52.122;5.404;2022-10-31T01:21:56;102209.72;;;10.02;99.14
71974;BME280;59840;52.122;5.404;2022-10-31T01:24:22;102206.09;;;9.97;99.21
71974;BME280;59840;52.122;5.404;2022-10-31T01:26:49;102204.28;;;9.91;99.21
71974;BME280;59840;52.122;5.404;2022-10-31T01:29:15;102198.19;;;9.90;99.30
71974;BME280;59840;52.122;5.404;2022-10-31T01:31:42;102196.56;;;9.89;98.78
71974;BME280;59840;52.122;5.404;2022-10-31T01:34:13;102195.16;;;9.93;99.28
71974;BME280;59840;52.122;5.404;2022-10-31T01:36:40;102192.09;;;9.96;99.25
71974;BME280;59840;52.122;5.404;2022-10-31T01:39:10;102190.88;;;9.92;98.73
71974;BME280;59840;52.122;5.404;2022-10-31T01:41:39;102198.00;;;9.85;98.89
71974;BME280;59840;52.122;5.404;2022-10-31T01:46:44;102199.00;;;9.78;98.58
71974;BME280;59840;52.122;5.404;2022-10-31T01:49:18;102192.31;;;9.75;98.63
71974;BME280;59840;52.122;5.404;2022-10-31T01:51:48;102189.13;;;9.66;98.80
71974;BME280;59840;52.122;5.404;2022-10-31T01:54:19;102193.16;;;9.62;98.72
71974;BME280;59840;52.122;5.404;2022-10-31T01:56:50;102187.09;;;9.55;99.12
71974;BME280;59840;52.122;5.404;2022-10-31T01:59:20;102184.88;;;9.52;99.38
71974;BME280;59840;52.122;5.404;2022-10-31T02:01:50;102181.81;;;9.49;99.00
71974;BME280;59840;52.122;5.404;2022-10-31T02:04:18;102185.88;;;9.45;98.79
71974;BME280;59840;52.122;5.404;2022-10-31T02:06:52;102181.41;;;9.38;99.00
71974;BME280;59840;52.122;5.404;2022-10-31T02:09:22;102185.91;;;9.31;99.01
71974;BME280;59840;52.122;5.404;2022-10-31T02:11:51;102187.09;;;9.22;98.87
71974;BME280;59840;52.122;5.404;2022-10-31T02:14:21;102186.50;;;9.20;98.68
71974;BME280;59840;52.122;5.404;2022-10-31T02:16:48;102187.69;;;9.18;98.91
71974;BME280;59840;52.122;5.404;2022-10-31T02:19:22;102183.22;;;9.12;99.08
71974;BME280;59840;52.122;5.404;2022-10-31T02:22:05;102178.56;;;9.07;98.59
71974;BME280;59840;52.122;5.404;2022-10-31T02:27:16;102187.69;;;8.98;98.91
71974;BME280;59840;52.122;5.404;2022-10-31T02:33:18;102185.84;;;8.92;98.68
71974;BME280;59840;52.122;5.404;2022-10-31T02:41:19;102187.19;;;8.68;98.74
71974;BME280;59840;52.122;5.404;2022-10-31T02:44:50;102189.03;;;8.61;98.80
71974;BME280;59840;52.122;5.404;2022-10-31T02:46:53;102193.47;;;8.60;99.13
71974;BME280;59840;52.122;5.404;2022-10-31T02:52:28;102200.56;;;8.60;99.10
71974;BME280;59840;52.122;5.404;2022-10-31T02:54:55;102201.16;;;8.55;98.48
71974;BME280;59840;52.122;5.404;2022-10-31T02:57:30;102192.22;;;8.50;99.20
71974;BME280;59840;52.122;5.404;2022-10-31T03:00:01;102194.44;;;8.46;98.40
71974;BME280;59840;52.122;5.404;2022-10-31T03:16:05;102198.97;;;8.24;98.48
71974;BME280;59840;52.122;5.404;2022-10-31T03:18:40;102189.66;;;8.22;98.36
71974;BME280;59840;52.122;5.404;2022-10-31T03:21:12;102197.72;;;8.20;98.81
71974;BME280;59840;52.122;5.404;2022-10-31T03:23:42;102201.75;;;8.16;98.70
71974;BME280;59840;52.122;5.404;2022-10-31T03:26:11;102203.56;;;8.16;98.41
71974;BME280;59840;52.122;5.404;2022-10-31T03:29:02;102205.38;;;8.15;98.43
71974;BME280;59840;52.122;5.404;2022-10-31T03:31:36;102204.97;;;8.12;98.32
71974;BME280;59840;52.122;5.404;2022-10-31T03:34:06;102209.03;;;8.14;98.19
71974;BME280;59840;52.122;5.404;2022-10-31T03:36:34;102208.97;;;8.07;97.96
71974;BME280;59840;52.122;5.404;2022-10-31T03:39:05;102212.00;;;8.04;98.52
71974;BME280;59840;52.122;5.404;2022-10-31T03:41:38;102209.78;;;8.08;98.64
71974;BME280;59840;52.122;5.404;2022-10-31T03:44:12;102205.16;;;8.10;98.04
71974;BME280;59840;52.122;5.404;2022-10-31T03:46:41;102210.38;;;8.03;97.95
71974;BME280;59840;52.122;5.404;2022-10-31T03:49:09;102206.50;;;7.99;98.22
71974;BME280;59840;52.122;5.404;2022-10-31T03:51:46;102205.28;;;7.95;98.46
71974;BME280;59840;52.122;5.404;2022-10-31T03:59:45;102199.78;;;7.90;97.92
71974;BME280;59840;52.122;5.404;2022-10-31T04:02:17;102197.56;;;7.87;98.43
71974;BME280;59840;52.122;5.404;2022-10-31T04:04:46;102202.56;;;7.82;97.74
71974;BME280;59840;52.122;5.404;2022-10-31T04:07:15;102213.84;;;7.76;97.54
71974;BME280;59840;52.122;5.404;2022-10-31T04:09:44;102205.91;;;7.69;97.71
71974;BME280;59840;52.122;5.404;2022-10-31T04:12:13;102208.34;;;7.71;98.11
71974;BME280;59840;52.122;5.404;2022-10-31T04:14:44;102208.59;;;7.76;97.84
71974;BME280;59840;52.122;5.404;2022-10-31T04:17:15;102213.47;;;7.79;97.76
71974;BME280;59840;52.122;5.404;2022-10-31T04:19:43;102209.34;;;7.70;97.30
71974;BME280;59840;52.122;5.404;2022-10-31T04:22:09;102217.19;;;7.63;97.59
71974;BME280;59840;52.122;5.404;2022-10-31T04:24:39;102220.25;;;7.67;97.68
71974;BME280;59840;52.122;5.404;2022-10-31T04:27:06;102213.16;;;7.61;97.83
71974;BME280;59840;52.122;5.404;2022-10-31T04:29:33;102212.28;;;7.54;97.27
71974;BME280;59840;52.122;5.404;2022-10-31T04:31:59;102213.03;;;7.48;97.32
71974;BME280;59840;52.122;5.404;2022-10-31T04:34:26;102205.72;;;7.43;97.49
71974;BME280;59840;52.122;5.404;2022-10-31T04:36:52;102204.91;;;7.43;97.56
71974;BME280;59840;52.122;5.404;2022-10-31T04:39:18;102206.09;;;7.40;97.76
71974;BME280;59840;52.122;5.404;2022-10-31T04:41:52;102207.91;;;7.39;97.91
71974;BME280;59840;52.122;5.404;2022-10-31T04:44:18;102198.41;;;7.38;97.82
71974;BME280;59840;52.122;5.404;2022-10-31T04:46:44;102200.47;;;7.43;97.95
71974;BME280;59840;52.122;5.404;2022-10-31T04:49:11;102200.66;;;7.42;98.00
71974;BME280;59840;52.122;5.404;2022-10-31T04:51:37;102200.41;;;7.36;98.17
71974;BME280;59840;52.122;5.404;2022-10-31T04:54:04;102199.16;;;7.32;97.61
71974;BME280;59840;52.122;5.404;2022-10-31T04:56:31;102199.16;;;7.32;97.58
71974;BME280;59840;52.122;5.404;2022-10-31T04:58:57;102190.91;;;7.35;97.75
71974;BME280;59840;52.122;5.404;2022-10-31T05:01:24;102193.16;;;7.38;97.67
71974;BME280;59840;52.122;5.404;2022-10-31T05:03:50;102194.16;;;7.37;97.66
71974;BME280;59840;52.122;5.404;2022-10-31T05:06:17;102197.72;;;7.30;97.58
71974;BME280;59840;52.122;5.404;2022-10-31T05:08:43;102193.25;;;7.24;97.12
71974;BME280;59840;52.122;5.404;2022-10-31T05:11:10;102186.94;;;7.18;96.89
71974;BME280;59840;52.122;5.404;2022-10-31T05:13:37;102190.94;;;7.14;97.38
71974;BME280;59840;52.122;5.404;2022-10-31T05:16:03;102188.50;;;7.13;97.93
71974;BME280;59840;52.122;5.404;2022-10-31T05:18:30;102190.38;;;7.19;97.82
71974;BME280;59840;52.122;5.404;2022-10-31T05:20:56;102193.19;;;7.17;97.94
71974;BME280;59840;52.122;5.404;2022-10-31T05:23:23;102187.94;;;7.17;98.09
71974;BME280;59840;52.122;5.404;2022-10-31T05:25:49;102194.44;;;7.21;97.77
71974;BME280;59840;52.122;5.404;2022-10-31T05:28:16;102183.50;;;7.18;97.78
71974;BME280;59840;52.122;5.404;2022-10-31T05:30:42;102187.94;;;7.17;97.78
71974;BME280;59840;52.122;5.404;2022-10-31T05:33:09;102179.06;;;7.18;97.64
71974;BME280;59840;52.122;5.404;2022-10-31T05:35:35;102182.88;;;7.16;97.64
71974;BME280;59840;52.122;5.404;2022-10-31T05:38:02;102184.88;;;7.14;97.66
71974;BME280;59840;52.122;5.404;2022-10-31T05:40:28;102177.38;;;7.11;97.56
71974;BME280;59840;52.122;5.404;2022-10-31T05:42:56;102180.81;;;7.11;97.93
71974;BME280;59840;52.122;5.404;2022-10-31T05:45:25;102183.44;;;7.11;97.84
71974;BME280;59840;52.122;5.404;2022-10-31T05:47:53;102187.88;;;7.11;97.68
71974;BME280;59840;52.122;5.404;2022-10-31T05:50:20;102180.19;;;7.09;97.96
71974;BME280;59840;52.122;5.404;2022-10-31T05:52:53;102179.38;;;7.09;97.84
71974;BME280;59840;52.122;5.404;2022-10-31T05:55:19;102173.94;;;7.10;97.73
71974;BME280;59840;52.122;5.404;2022-10-31T05:57:46;102168.63;;;7.03;97.42
71974;BME280;59840;52.122;5.404;2022-10-31T06:00:12;102174.59;;;6.97;97.44
71974;BME280;59840;52.122;5.404;2022-10-31T06:02:39;102162.50;;;6.96;97.77
71974;BME280;59840;52.122;5.404;2022-10-31T06:05:05;102165.81;;;7.05;97.79
71974;BME280;59840;52.122;5.404;2022-10-31T06:07:33;102169.25;;;7.05;97.37
71974;BME280;59840;52.122;5.404;2022-10-31T06:10:00;102164.38;;;7.02;97.29
71974;BME280;59840;52.122;5.404;2022-10-31T06:12:27;102163.19;;;7.05;97.45
71974;BME280;59840;52.122;5.404;2022-10-31T06:14:56;102163.81;;;7.07;97.18
71974;BME280;59840;52.122;5.404;2022-10-31T06:17:22;102160.75;;;7.03;97.03
71974;BME280;59840;52.122;5.404;2022-10-31T06:19:49;102170.63;;;7.01;97.20
71974;BME280;59840;52.122;5.404;2022-10-31T06:22:20;102159.50;;;6.99;97.23
71974;BME280;59840;52.122;5.404;2022-10-31T06:24:46;102160.31;;;7.00;97.48
71974;BME280;59840;52.122;5.404;2022-10-31T06:27:13;102155.31;;;7.05;97.37
71974;BME280;59840;52.122;5.404;2022-10-31T06:29:39;102167.50;;;7.13;97.38
71974;BME280;59840;52.122;5.404;2022-10-31T06:32:09;102170.38;;;7.18;97.30
71974;BME280;59840;52.122;5.404;2022-10-31T06:34:36;102167.56;;;7.19;96.97
71974;BME280;59840;52.122;5.404;2022-10-31T06:37:03;102171.63;;;7.22;97.26
71974;BME280;59840;52.122;5.404;2022-10-31T06:39:29;102167.00;;;7.24;97.54
71974;BME280;59840;52.122;5.404;2022-10-31T06:41:56;102173.69;;;7.26;97.24
71974;BME280;59840;52.122;5.404;2022-10-31T06:44:22;102174.28;;;7.28;97.07
71974;BME280;59840;52.122;5.404;2022-10-31T06:46:49;102182.56;;;7.25;97.33
71974;BME280;59840;52.122;5.404;2022-10-31T06:49:15;102176.50;;;7.25;97.26
71974;BME280;59840;52.122;5.404;2022-10-31T06:51:47;102179.94;;;7.25;97.33
71974;BME280;59840;52.122;5.404;2022-10-31T06:54:14;102181.34;;;7.28;97.38
71974;BME280;59840;52.122;5.404;2022-10-31T06:56:40;102187.22;;;7.30;97.42
71974;BME280;59840;52.122;5.404;2022-10-31T06:59:07;102191.91;;;7.34;98.08
71974;BME280;59840;52.122;5.404;2022-10-31T07:01:33;102180.41;;;7.35;97.88
71974;BME280;59840;52.122;5.404;2022-10-31T07:04:00;102189.53;;;7.39;97.88
71974;BME280;59840;52.122;5.404;2022-10-31T07:06:27;102186.16;;;7.46;98.06
71974;BME280;59840;52.122;5.404;2022-10-31T07:08:53;102186.75;;;7.48;98.09
71974;BME280;59840;52.122;5.404;2022-10-31T07:11:20;102187.81;;;7.53;97.96
71974;BME280;59840;52.122;5.404;2022-10-31T07:13:46;102185.44;;;7.58;97.67
71974;BME280;59840;52.122;5.404;2022-10-31T07:16:12;102181.22;;;7.64;97.96
71974;BME280;59840;52.122;5.404;2022-10-31T07:18:40;102181.44;;;7.69;97.72
71974;BME280;59840;52.122;5.404;2022-10-31T07:21:06;102177.81;;;7.70;97.40
71974;BME280;59840;52.122;5.404;2022-10-31T07:23:33;102180.44;;;7.70;97.67
71974;BME280;59840;52.122;5.404;2022-10-31T07:25:59;102183.06;;;7.70;97.36
71974;BME280;59840;52.122;5.404;2022-10-31T07:28:26;102177.44;;;7.73;97.82
71974;BME280;59840;52.122;5.404;2022-10-31T07:30:54;102176.44;;;7.74;97.99
71974;BME280;59840;52.122;5.404;2022-10-31T07:33:22;102187.81;;;7.81;97.97
71974;BME280;59840;52.122;5.404;2022-10-31T07:35:49;102191.09;;;7.90;97.76
71974;BME280;59840;52.122;5.404;2022-10-31T07:38:15;102194.78;;;7.95;97.63
71974;BME280;59840;52.122;5.404;2022-10-31T07:40:42;102196.81;;;8.00;97.02
71974;BME280;59840;52.122;5.404;2022-10-31T07:43:10;102194.41;;;8.05;97.21
71974;BME280;59840;52.122;5.404;2022-10-31T07:45:40;102194.84;;;8.08;96.93
71974;BME280;59840;52.122;5.404;2022-10-31T07:48:07;102196.69;;;8.15;97.00
71974;BME280;59840;52.122;5.404;2022-10-31T07:50:33;102192.03;;;8.17;96.75
71974;BME280;59840;52.122;5.404;2022-10-31T07:55:30;102202.25;;;8.33;96.84
71974;BME280;59840;52.122;5.404;2022-10-31T07:57:58;102192.19;;;8.43;96.49
71974;BME280;59840;52.122;5.404;2022-10-31T08:00:26;102196.28;;;8.52;96.43
71974;BME280;59840;52.122;5.404;2022-10-31T08:03:13;102195.06;;;8.55;96.31
71974;BME280;59840;52.122;5.404;2022-10-31T08:05:41;102200.75;;;8.58;96.07
71974;BME280;59840;52.122;5.404;2022-10-31T08:08:08;102198.53;;;8.68;96.39
71974;BME280;59840;52.122;5.404;2022-10-31T08:10:35;102201.81;;;8.77;96.80
71974;BME280;59840;52.122;5.404;2022-10-31T08:13:07;102208.94;;;8.90;96.50
71974;BME280;59840;52.122;5.404;2022-10-31T08:15:34;102199.44;;;9.08;97.04
71974;BME280;59840;52.122;5.404;2022-10-31T08:18:11;102211.00;;;9.21;97.28
71974;BME280;59840;52.122;5.404;2022-10-31T08:20:39;102209.59;;;9.25;96.41
71974;BME280;59840;52.122;5.404;2022-10-31T08:23:06;102206.53;;;9.41;96.77
71974;BME280;59840;52.122;5.404;2022-10-31T08:25:34;102203.31;;;9.59;96.33
71974;BME280;59840;52.122;5.404;2022-10-31T08:28:04;102210.78;;;9.75;96.36
71974;BME280;59840;52.122;5.404;2022-10-31T08:30:34;102204.69;;;9.81;96.74
71974;BME280;59840;52.122;5.404;2022-10-31T08:33:10;102200.03;;;9.83;96.55
71974;BME280;59840;52.122;5.404;2022-10-31T08:35:37;102196.16;;;9.92;97.67
71974;BME280;59840;52.122;5.404;2022-10-31T08:38:03;102193.72;;;9.97;97.15
71974;BME280;59840;52.122;5.404;2022-10-31T08:40:32;102195.75;;;10.02;98.10
71974;BME280;59840;52.122;5.404;2022-10-31T08:43:00;102201.16;;;10.14;98.00
71974;BME280;59840;52.122;5.404;2022-10-31T08:45:27;102201.78;;;10.22;98.13
71974;BME280;59840;52.122;5.404;2022-10-31T08:48:03;102194.47;;;10.24;97.56
71974;BME280;59840;52.122;5.404;2022-10-31T08:50:32;102199.31;;;10.27;97.78
71974;BME280;59840;52.122;5.404;2022-10-31T08:53:04;102187.34;;;10.31;98.33
71974;BME280;59840;52.122;5.404;2022-10-31T08:55:35;102183.06;;;10.37;98.44
71974;BME280;59840;52.122;5.404;2022-10-31T08:58:04;102177.13;;;10.41;98.26
71974;BME280;59840;52.122;5.404;2022-10-31T09:00:31;102166.75;;;10.47;98.31
71974;BME280;59840;52.122;5.404;2022-10-31T09:02:59;102178.09;;;10.54;97.94
71974;BME280;59840;52.122;5.404;2022-10-31T09:05:27;102175.00;;;10.63;98.24
71974;BME280;59840;52.122;5.404;2022-10-31T09:07:57;102168.00;;;10.75;97.42
71974;BME280;59840;52.122;5.404;2022-10-31T09:10:26;102169.56;;;10.90;97.35
71974;BME280;59840;52.122;5.404;2022-10-31T09:15:23;102168.44;;;11.29;98.33
71974;BME280;59840;52.122;5.404;2022-10-31T09:17:50;102162.59;;;11.45;97.78
71974;BME280;59840;52.122;5.404;2022-10-31T09:20:16;102152.72;;;11.59;97.40
71974;BME280;59840;52.122;5.404;2022-10-31T09:22:43;102152.22;;;11.68;97.36
71974;BME280;59840;52.122;5.404;2022-10-31T09:25:10;102145.25;;;11.74;97.13
71974;BME280;59840;52.122;5.404;2022-10-31T09:27:37;102143.94;;;11.83;97.11
71974;BME280;59840;52.122;5.404;2022-10-31T09:30:04;102140.78;;;11.93;97.51
71974;BME280;59840;52.122;5.404;2022-10-31T09:32:31;102117.28;;;12.03;97.07
71974;BME280;59840;52.122;5.404;2022-10-31T09:34:57;102124.44;;;12.14;97.15
71974;BME280;59840;52.122;5.404;2022-10-31T09:37:24;102120.03;;;12.26;96.96
71974;BME280;59840;52.122;5.404;2022-10-31T09:39:50;102112.94;;;12.38;97.47
71974;BME280;59840;52.122;5.404;2022-10-31T09:42:34;102118.97;;;12.57;97.64
71974;BME280;59840;52.122;5.404;2022-10-31T09:45:27;102134.59;;;12.77;96.84
71974;BME280;59840;52.122;5.404;2022-10-31T09:48:13;102125.75;;;12.95;96.96
71974;BME280;59840;52.122;5.404;2022-10-31T09:50:48;102120.00;;;13.09;97.20
71974;BME280;59840;52.122;5.404;2022-10-31T09:55:56;102122.34;;;13.29;97.07
71974;BME280;59840;52.122;5.404;2022-10-31T09:58:26;102117.75;;;13.36;97.73
71974;BME280;59840;52.122;5.404;2022-10-31T10:00:54;102109.31;;;13.51;97.39
71974;BME280;59840;52.122;5.404;2022-10-31T10:03:42;102113.44;;;13.70;97.78
71974;BME280;59840;52.122;5.404;2022-10-31T10:06:17;102115.09;;;13.88;97.14
71974;BME280;59840;52.122;5.404;2022-10-31T10:08:45;102117.97;;;13.98;97.58
71974;BME280;59840;52.122;5.404;2022-10-31T10:17:09;102097.22;;;14.24;97.04
71974;BME280;59840;52.122;5.404;2022-10-31T10:19:50;102098.34;;;14.28;96.62
71974;BME280;59840;52.122;5.404;2022-10-31T10:25:24;102096.59;;;14.33;95.92
71974;BME280;59840;52.122;5.404;2022-10-31T10:30:40;102092.19;;;14.39;95.42
71974;BME280;59840;52.122;5.404;2022-10-31T10:33:11;102077.06;;;14.39;95.56
71974;BME280;59840;52.122;5.404;2022-10-31T10:35:43;102075.56;;;14.44;95.22
71974;BME280;59840;52.122;5.404;2022-10-31T10:38:17;102075.09;;;14.47;94.46
71974;BME280;59840;52.122;5.404;2022-10-31T10:40:46;102080.50;;;14.52;94.93
71974;BME280;59840;52.122;5.404;2022-10-31T10:51:52;102048.69;;;14.90;92.69
71974;BME280;59840;52.122;5.404;2022-10-31T10:57:45;102031.56;;;15.20;92.76
71974;BME280;59840;52.122;5.404;2022-10-31T11:00:19;102035.88;;;15.26;91.88
71974;BME280;59840;52.122;5.404;2022-10-31T11:02:46;102024.88;;;15.39;91.90
71974;BME280;59840;52.122;5.404;2022-10-31T11:07:52;102005.53;;;15.43;89.50
71974;BME280;59840;52.122;5.404;2022-10-31T11:10:19;101989.28;;;15.40;88.94
71974;BME280;59840;52.122;5.404;2022-10-31T11:15:27;101963.22;;;15.42;89.84
71974;BME280;59840;52.122;5.404;2022-10-31T11:17:55;101974.72;;;15.48;89.93
71974;BME280;59840;52.122;5.404;2022-10-31T11:20:34;101982.78;;;15.53;89.28
71974;BME280;59840;52.122;5.404;2022-10-31T11:23:17;101981.34;;;15.67;89.46
71974;BME280;59840;52.122;5.404;2022-10-31T11:25:54;101987.88;;;15.81;89.16
71974;BME280;59840;52.122;5.404;2022-10-31T11:28:22;101978.59;;;15.84;88.52
71974;BME280;59840;52.122;5.404;2022-10-31T11:30:52;101985.78;;;15.83;89.28
71974;BME280;59840;52.122;5.404;2022-10-31T11:35:53;101966.34;;;15.83;88.23
71974;BME280;59840;52.122;5.404;2022-10-31T11:38:30;101971.19;;;15.86;87.57
71974;BME280;59840;52.122;5.404;2022-10-31T11:41:14;101956.81;;;15.87;88.36
71974;BME280;59840;52.122;5.404;2022-10-31T11:43:47;101959.53;;;15.92;87.49
71974;BME280;59840;52.122;5.404;2022-10-31T11:46:18;101966.72;;;15.96;87.24
71974;BME280;59840;52.122;5.404;2022-10-31T11:48:49;101948.66;;;15.98;87.04
71974;BME280;59840;52.122;5.404;2022-10-31T11:51:28;101951.34;;;16.03;87.31
71974;BME280;59840;52.122;5.404;2022-10-31T11:53:58;101940.72;;;16.03;87.54
71974;BME280;59840;52.122;5.404;2022-10-31T11:56:39;101931.16;;;16.07;87.11
71974;BME280;59840;52.122;5.404;2022-10-31T11:59:24;101911.47;;;16.08;86.80
71974;BME280;59840;52.122;5.404;2022-10-31T12:01:53;101905.63;;;16.12;86.93
71974;BME280;59840;52.122;5.404;2022-10-31T12:04:28;101897.59;;;16.06;85.97
71974;BME280;59840;52.122;5.404;2022-10-31T12:06:58;101885.31;;;16.00;86.74
71974;BME280;59840;52.122;5.404;2022-10-31T12:09:29;101902.28;;;15.94;86.61
71974;BME280;59840;52.122;5.404;2022-10-31T12:12:21;101885.78;;;15.92;87.73
71974;BME280;59840;52.122;5.404;2022-10-31T12:17:45;101875.81;;;15.78;88.38
71974;BME280;59840;52.122;5.404;2022-10-31T12:39:28;101809.22;;;16.09;85.51
71974;BME280;59840;52.122;5.404;2022-10-31T12:42:15;101831.63;;;16.14;86.33
71974;BME280;59840;52.122;5.404;2022-10-31T12:50:49;101792.78;;;16.18;86.18
71974;BME280;59840;52.122;5.404;2022-10-31T12:58:59;101794.72;;;16.32;85.82
71974;BME280;59840;52.122;5.404;2022-10-31T13:01:35;101789.09;;;16.29;84.89
71974;BME280;59840;52.122;5.404;2022-10-31T13:06:35;101780.84;;;16.25;85.18
71974;BME280;59840;52.122;5.404;2022-10-31T13:09:15;101778.44;;;16.24;84.46
71974;BME280;59840;52.122;5.404;2022-10-31T13:11:45;101776.00;;;16.17;84.98
71974;BME280;59840;52.122;5.404;2022-10-31T13:14:32;101772.84;;;16.25;85.90
71974;BME280;59840;52.122;5.404;2022-10-31T13:17:00;101767.25;;;16.32;85.99
71974;BME280;59840;52.122;5.404;2022-10-31T13:19:31;101743.81;;;16.24;85.03
71974;BME280;59840;52.122;5.404;2022-10-31T13:22:07;101729.16;;;16.21;85.76
71974;BME280;59840;52.122;5.404;2022-10-31T13:27:59;101724.31;;;16.13;85.93
71974;BME280;59840;52.122;5.404;2022-10-31T13:30:30;101726.72;;;16.15;86.02
71974;BME280;59840;52.122;5.404;2022-10-31T13:34:08;101724.59;;;16.17;86.42
71974;BME280;59840;52.122;5.404;2022-10-31T13:38:51;101707.09;;;16.26;86.25
71974;BME280;59840;52.122;5.404;2022-10-31T13:41:27;101705.75;;;16.33;86.59
71974;BME280;59840;52.122;5.404;2022-10-31T13:47:56;101686.91;;;16.50;86.23
71974;BME280;59840;52.122;5.404;2022-10-31T13:51:03;101675.47;;;16.55;86.06
71974;BME280;59840;52.122;5.404;2022-10-31T13:58:35;101670.69;;;16.62;86.55
71974;BME280;59840;52.122;5.404;2022-10-31T14:01:19;101671.50;;;16.62;86.58
71974;BME280;59840;52.122;5.404;2022-10-31T14:03:55;101659.22;;;16.61;85.72
71974;BME280;59840;52.122;5.404;2022-10-31T14:06:41;101658.16;;;16.57;85.53
71974;BME280;59840;52.122;5.404;2022-10-31T14:09:30;101658.94;;;16.53;85.30
71974;BME280;59840;52.122;5.404;2022-10-31T14:12:01;101653.34;;;16.49;85.44
71974;BME280;59840;52.122;5.404;2022-10-31T14:14:39;101645.88;;;16.46;85.86
71974;BME280;59840;52.122;5.404;2022-10-31T14:17:17;101644.78;;;16.42;85.64
71974;BME280;59840;52.122;5.404;2022-10-31T14:20:47;101639.44;;;16.37;85.76
71974;BME280;59840;52.122;5.404;2022-10-31T14:32:27;101609.59;;;16.25;87.17
71974;BME280;59840;52.122;5.404;2022-10-31T14:34:56;101602.16;;;16.22;86.64
71974;BME280;59840;52.122;5.404;2022-10-31T14:46:03;101590.94;;;16.15;87.17
71974;BME280;59840;52.122;5.404;2022-10-31T14:50:54;101583.44;;;16.06;87.06
71974;BME280;59840;52.122;5.404;2022-10-31T14:53:31;101576.53;;;16.05;87.41
71974;BME280;59840;52.122;5.404;2022-10-31T14:56:30;101575.44;;;16.01;87.83
71974;BME280;59840;52.122;5.404;2022-10-31T14:59:01;101576.78;;;15.99;87.80
71974;BME280;59840;52.122;5.404;2022-10-31T15:02:26;101581.81;;;15.95;87.65
71974;BME280;59840;52.122;5.404;2022-10-31T15:04:55;101574.88;;;15.94;87.96
71974;BME280;59840;52.122;5.404;2022-10-31T15:07:25;101575.44;;;15.91;87.94
71974;BME280;59840;52.122;5.404;2022-10-31T15:10:06;101572.25;;;15.89;88.02
71974;BME280;59840;52.122;5.404;2022-10-31T15:12:44;101572.75;;;15.86;88.13
71974;BME280;59840;52.122;5.404;2022-10-31T15:15:19;101563.44;;;15.84;88.01
71974;BME280;59840;52.122;5.404;2022-10-31T15:17:53;101573.53;;;15.82;88.36
71974;BME280;59840;52.122;5.404;2022-10-31T15:20:24;101561.00;;;15.77;88.62
71974;BME280;59840;52.122;5.404;2022-10-31T15:22:55;101560.47;;;15.75;88.82
71974;BME280;59840;52.122;5.404;2022-10-31T15:25:25;101552.22;;;15.71;88.48
71974;BME280;59840;52.122;5.404;2022-10-31T15:27:53;101550.06;;;15.68;88.82
71974;BME280;59840;52.122;5.404;2022-10-31T15:30:25;101551.38;;;15.66;89.00
71974;BME280;59840;52.122;5.404;2022-10-31T15:32:52;101543.91;;;15.63;89.32
71974;BME280;59840;52.122;5.404;2022-10-31T15:35:30;101533.53;;;15.61;89.13
71974;BME280;59840;52.122;5.404;2022-10-31T15:37:58;101525.31;;;15.58;89.50
71974;BME280;59840;52.122;5.404;2022-10-31T15:40:27;101522.34;;;15.54;89.35